createdAt,value
2023-01-23T00:01:35.682Z,-7.45
2023-01-23T00:04:03.967Z,-7.41
2023-01-23T00:06:32.071Z,-7.35
2023-01-23T00:09:01.606Z,-7.33
2023-01-23T00:11:30.964Z,-7.31
2023-01-23T00:14:00.598Z,-7.33
2023-01-23T00:16:30.908Z,-7.31
2023-01-23T00:18:59.681Z,-7.33
2023-01-23T00:21:30.370Z,-7.27
2023-01-23T00:24:01.416Z,-7.28
2023-01-23T00:26:32.779Z,-7.27
2023-01-23T00:29:01.024Z,-7.28
2023-01-23T00:31:30.470Z,-7.40
2023-01-23T00:33:59.911Z,-7.43
2023-01-23T00:36:30.541Z,-7.54
2023-01-23T00:38:58.489Z,-7.62
2023-01-23T00:41:26.788Z,-7.73
2023-01-23T00:43:55.872Z,-7.83
2023-01-23T00:46:23.836Z,-7.91
2023-01-23T00:48:52.162Z,-7.98
2023-01-23T00:51:20.407Z,-8.05
2023-01-23T00:53:49.970Z,-8.08
2023-01-23T00:56:17.703Z,-8.07
2023-01-23T00:58:45.495Z,-8.12
2023-01-23T01:01:15.124Z,-8.02
2023-01-23T01:03:43.674Z,-7.84
2023-01-23T01:06:11.692Z,-7.72
2023-01-23T01:08:40.077Z,-7.58
2023-01-23T01:11:08.307Z,-7.46
2023-01-23T01:13:36.574Z,-7.35
2023-01-23T01:16:04.996Z,-7.22
2023-01-23T01:18:34.412Z,-7.09
2023-01-23T01:21:02.410Z,-7.02
2023-01-23T01:23:34.896Z,-6.92
2023-01-23T01:26:03.203Z,-6.83
2023-01-23T01:28:33.082Z,-6.82
2023-01-23T01:31:06.832Z,-6.76
2023-01-23T01:33:36.521Z,-6.76
2023-01-23T01:36:04.795Z,-6.74
2023-01-23T01:38:32.556Z,-6.75
2023-01-23T01:41:00.523Z,-6.79
2023-01-23T01:43:30.218Z,-6.77
2023-01-23T01:46:20.436Z,-6.77
2023-01-23T01:49:06.032Z,-6.75
2023-01-23T01:51:36.518Z,-6.77
2023-01-23T01:54:10.484Z,-6.68
2023-01-23T01:56:44.635Z,-6.65
2023-01-23T01:59:13.195Z,-6.54
2023-01-23T02:01:42.564Z,-6.58
2023-01-23T02:04:12.183Z,-6.52
2023-01-23T02:06:40.096Z,-6.48
2023-01-23T02:09:16.162Z,-6.40
2023-01-23T02:11:44.435Z,-6.40
2023-01-23T02:14:16.192Z,-6.35
2023-01-23T02:16:51.085Z,-6.45
2023-01-23T02:19:35.585Z,-6.41
2023-01-23T02:22:14.325Z,-6.36
2023-01-23T02:24:49.186Z,-6.25
2023-01-23T02:27:18.211Z,-6.25
2023-01-23T02:29:48.331Z,-6.21
2023-01-23T02:32:16.060Z,-6.14
2023-01-23T02:34:44.185Z,-6.09
2023-01-23T02:37:12.320Z,-6.03
2023-01-23T02:39:43.488Z,-5.99
2023-01-23T02:42:11.350Z,-5.94
2023-01-23T02:44:43.185Z,-5.91
2023-01-23T02:47:12.473Z,-5.85
2023-01-23T02:49:40.525Z,-5.82
2023-01-23T02:52:09.643Z,-5.72
2023-01-23T02:54:37.549Z,-5.71
2023-01-23T02:57:05.378Z,-5.71
2023-01-23T02:59:50.565Z,-5.70
2023-01-23T03:02:22.539Z,-5.62
2023-01-23T03:04:50.275Z,-5.56
2023-01-23T03:07:18.153Z,-5.50
2023-01-23T03:09:47.738Z,-5.48
2023-01-23T03:12:15.760Z,-5.41
2023-01-23T03:14:43.526Z,-5.38
2023-01-23T03:17:11.239Z,-5.32
2023-01-23T03:19:40.296Z,-5.25
2023-01-23T03:22:08.063Z,-5.21
2023-01-23T03:24:36.467Z,-5.16
2023-01-23T03:27:04.295Z,-5.21
2023-01-23T03:29:49.562Z,-5.16
2023-01-23T03:32:17.683Z,-5.13
2023-01-23T03:34:48.878Z,-5.05
2023-01-23T03:37:17.522Z,-4.99
2023-01-23T03:40:02.473Z,-4.95
2023-01-23T03:42:30.176Z,-4.92
2023-01-23T03:44:57.847Z,-4.88
2023-01-23T03:47:26.329Z,-4.91
2023-01-23T03:49:55.402Z,-4.88
2023-01-23T03:52:23.180Z,-4.88
2023-01-23T03:54:50.945Z,-4.88
2023-01-23T03:57:19.878Z,-4.80
2023-01-23T03:59:47.569Z,-4.78
2023-01-23T04:02:15.360Z,-4.76
2023-01-23T04:04:43.075Z,-4.74
2023-01-23T04:07:12.137Z,-4.74
2023-01-23T04:09:39.907Z,-4.73
2023-01-23T04:12:07.653Z,-4.70
2023-01-23T04:14:37.673Z,-4.68
2023-01-23T04:17:06.582Z,-4.65
2023-01-23T04:19:35.720Z,-4.59
2023-01-23T04:22:06.106Z,-4.57
2023-01-23T04:24:35.225Z,-4.52
2023-01-23T04:27:03.056Z,-4.48
2023-01-23T04:29:30.778Z,-4.50
2023-01-23T04:31:58.598Z,-4.41
2023-01-23T04:34:26.421Z,-4.46
2023-01-23T04:36:54.203Z,-4.44
2023-01-23T04:39:21.887Z,-4.40
2023-01-23T04:41:50.999Z,-4.35
2023-01-23T04:44:21.649Z,-4.38
2023-01-23T04:46:50.250Z,-4.34
2023-01-23T04:49:18.688Z,-4.38
2023-01-23T04:51:48.086Z,-4.34
2023-01-23T04:54:15.922Z,-4.34
2023-01-23T04:56:43.840Z,-4.35
2023-01-23T04:59:13.232Z,-4.40
2023-01-23T05:01:40.944Z,-4.32
2023-01-23T05:04:08.693Z,-4.31
2023-01-23T05:06:39.631Z,-4.31
2023-01-23T05:09:07.429Z,-4.27
2023-01-23T05:11:35.150Z,-4.24
2023-01-23T05:14:03.046Z,-4.20
2023-01-23T05:16:32.197Z,-4.17
2023-01-23T05:18:59.884Z,-4.13
2023-01-23T05:21:27.675Z,-4.14
2023-01-23T05:23:55.378Z,-4.13
2023-01-23T05:26:23.066Z,-4.13
2023-01-23T05:28:50.804Z,-4.06
2023-01-23T05:31:18.572Z,-4.05
2023-01-23T05:33:47.729Z,-4.07
2023-01-23T05:36:17.658Z,-4.09
2023-01-23T05:38:46.210Z,-4.05
2023-01-23T05:41:13.948Z,-4.08
2023-01-23T05:43:41.681Z,-4.04
2023-01-23T05:46:09.374Z,-4.06
2023-01-23T05:48:37.044Z,-4.04
2023-01-23T05:51:06.536Z,-3.93
2023-01-23T05:53:34.240Z,-3.95
2023-01-23T05:56:06.621Z,-3.91
2023-01-23T05:58:34.538Z,-3.93
2023-01-23T06:01:03.544Z,-3.92
2023-01-23T06:03:31.409Z,-3.90
2023-01-23T06:06:01.260Z,-3.88
2023-01-23T06:08:30.381Z,-3.83
2023-01-23T06:10:59.580Z,-3.84
2023-01-23T06:13:28.018Z,-3.83
2023-01-23T06:15:56.500Z,-3.78
2023-01-23T06:18:25.337Z,-3.76
2023-01-23T06:20:58.924Z,-3.73
2023-01-23T06:23:26.683Z,-3.67
2023-01-23T06:25:55.771Z,-3.71
2023-01-23T06:28:23.412Z,-3.75
2023-01-23T06:30:51.154Z,-3.73
2023-01-23T06:33:18.890Z,-3.73
2023-01-23T06:35:46.598Z,-3.72
2023-01-23T06:38:14.257Z,-3.69
2023-01-23T06:40:41.969Z,-3.65
2023-01-23T06:43:11.004Z,-3.59
2023-01-23T06:45:38.704Z,-3.51
2023-01-23T06:48:06.791Z,-3.45
2023-01-23T06:50:34.468Z,-3.41
2023-01-23T06:53:02.119Z,-3.29
2023-01-23T06:55:29.795Z,-3.26
2023-01-23T06:57:57.591Z,-3.21
2023-01-23T07:00:28.101Z,-3.17
2023-01-23T07:02:59.002Z,-3.11
2023-01-23T07:05:26.727Z,-3.08
2023-01-23T07:07:54.378Z,-3.04
2023-01-23T07:10:23.042Z,-2.95
2023-01-23T07:12:51.328Z,-2.84
2023-01-23T07:15:19.136Z,-2.82
2023-01-23T07:17:48.318Z,-2.73
2023-01-23T07:20:16.180Z,-2.73
2023-01-23T07:22:43.860Z,-2.65
2023-01-23T07:25:11.561Z,-2.63
2023-01-23T07:27:39.240Z,-2.58
2023-01-23T07:30:07.980Z,-2.56
2023-01-23T07:32:35.820Z,-2.53
2023-01-23T07:35:05.624Z,-2.53
2023-01-23T07:37:33.503Z,-2.51
2023-01-23T07:40:01.234Z,-2.45
2023-01-23T07:42:28.899Z,-2.43
2023-01-23T07:44:56.558Z,-2.41
2023-01-23T07:47:24.189Z,-2.40
2023-01-23T07:49:51.871Z,-2.32
2023-01-23T07:52:20.981Z,-2.30
2023-01-23T07:54:48.653Z,-2.28
2023-01-23T07:57:16.497Z,-2.31
2023-01-23T07:59:44.207Z,-2.24
2023-01-23T08:02:12.180Z,-2.26
2023-01-23T08:04:39.901Z,-2.23
2023-01-23T08:07:07.753Z,-2.19
2023-01-23T08:09:36.899Z,-2.21
2023-01-23T08:12:04.987Z,-2.19
2023-01-23T08:14:32.922Z,-2.14
2023-01-23T08:17:01.593Z,-2.05
2023-01-23T08:19:29.441Z,-2.08
2023-01-23T08:21:57.170Z,-2.02
2023-01-23T08:24:24.886Z,-1.99
2023-01-23T08:26:55.145Z,-1.92
2023-01-23T08:29:22.962Z,-1.83
2023-01-23T08:31:51.710Z,-1.81
2023-01-23T08:34:19.527Z,-1.82
2023-01-23T08:36:47.175Z,-1.81
2023-01-23T08:39:14.841Z,-1.81
2023-01-23T08:41:42.536Z,-1.78
2023-01-23T08:44:13.087Z,-1.77
2023-01-23T08:46:40.753Z,-1.63
2023-01-23T08:49:10.398Z,-1.66
2023-01-23T08:51:39.063Z,-1.66
2023-01-23T08:54:07.056Z,-1.63
2023-01-23T08:56:34.853Z,-1.59
2023-01-23T08:59:02.557Z,-1.49
2023-01-23T09:01:31.605Z,-1.48
2023-01-23T09:04:01.074Z,-1.45
2023-01-23T09:06:30.410Z,-1.47
2023-01-23T09:08:58.116Z,-1.31
2023-01-23T09:11:25.946Z,-1.21
2023-01-23T09:13:54.125Z,-1.20
2023-01-23T09:16:22.099Z,-1.19
2023-01-23T09:18:51.269Z,-1.19
2023-01-23T09:21:19.296Z,-1.19
2023-01-23T09:23:47.393Z,-1.05
2023-01-23T09:26:17.223Z,-1.00
2023-01-23T09:28:46.527Z,-1.01
2023-01-23T09:31:15.029Z,-0.96
2023-01-23T09:33:43.122Z,-0.94
2023-01-23T09:36:12.538Z,-0.88
2023-01-23T09:38:40.608Z,-0.94
2023-01-23T09:41:11.745Z,-0.90
2023-01-23T09:43:45.927Z,-0.93
2023-01-23T09:46:19.865Z,-0.84
2023-01-23T09:48:49.472Z,-0.91
2023-01-23T09:51:25.570Z,-0.90
2023-01-23T09:53:55.875Z,-0.91
2023-01-23T09:56:30.990Z,-0.90
2023-01-23T09:59:07.409Z,-0.84
2023-01-23T10:01:35.517Z,-0.82
2023-01-23T10:04:04.915Z,-0.62
2023-01-23T10:06:50.217Z,-0.66
2023-01-23T10:09:32.603Z,-0.60
2023-01-23T10:12:10.813Z,-0.50
2023-01-23T10:14:59.463Z,-0.53
2023-01-23T10:17:34.242Z,-0.60
2023-01-23T10:20:18.633Z,-0.64
2023-01-23T10:22:58.493Z,-0.67
2023-01-23T10:25:29.254Z,-0.61
2023-01-23T10:28:01.649Z,-0.60
2023-01-23T10:30:33.392Z,-0.57
2023-01-23T10:33:12.784Z,-0.50
2023-01-23T10:35:50.622Z,-0.38
2023-01-23T10:38:27.701Z,-0.38
2023-01-23T10:41:09.394Z,-0.32
2023-01-23T10:43:37.403Z,-0.30
2023-01-23T10:46:12.356Z,-0.29
2023-01-23T10:48:46.048Z,-0.19
2023-01-23T10:51:44.723Z,-0.07
2023-01-23T10:54:30.741Z,0.08
2023-01-23T10:57:02.006Z,0.13
2023-01-23T10:59:34.020Z,0.24
2023-01-23T11:02:10.040Z,0.30
2023-01-23T11:04:37.879Z,0.30
2023-01-23T11:07:10.497Z,0.34
2023-01-23T11:09:55.133Z,0.23
2023-01-23T11:12:24.690Z,0.26
2023-01-23T11:14:53.423Z,0.33
2023-01-23T11:17:24.185Z,0.39
2023-01-23T11:19:54.500Z,0.37
2023-01-23T11:22:32.220Z,0.43
2023-01-23T11:25:01.398Z,0.53
2023-01-23T11:27:31.104Z,0.47
2023-01-23T11:30:23.647Z,0.41
2023-01-23T11:32:58.408Z,0.37
2023-01-23T11:35:39.300Z,0.31
2023-01-23T11:38:07.448Z,0.33
2023-01-23T11:40:37.475Z,0.35
2023-01-23T11:43:10.958Z,0.28
2023-01-23T11:45:49.370Z,0.22
2023-01-23T11:48:37.045Z,0.27
2023-01-23T11:51:12.450Z,0.14
2023-01-23T11:53:45.138Z,0.03
2023-01-23T11:56:44.824Z,-0.08
2023-01-23T11:59:32.579Z,-0.04
2023-01-23T12:02:19.428Z,-0.03
2023-01-23T12:05:15.992Z,-0.02
2023-01-23T12:07:55.119Z,0.09
2023-01-23T12:10:29.523Z,0.19
2023-01-23T12:13:25.236Z,0.20
2023-01-23T12:16:04.564Z,0.31
2023-01-23T12:18:42.822Z,0.37
2023-01-23T12:21:18.513Z,0.34
2023-01-23T12:24:00.407Z,0.45
2023-01-23T12:26:30.626Z,0.45
2023-01-23T12:29:27.070Z,0.48
2023-01-23T12:32:07.585Z,0.52
2023-01-23T12:34:56.494Z,0.59
2023-01-23T12:37:41.815Z,0.60
2023-01-23T12:40:14.540Z,0.47
2023-01-23T12:42:49.701Z,0.47
2023-01-23T12:45:23.499Z,0.51
2023-01-23T12:47:59.776Z,0.55
2023-01-23T12:50:36.393Z,0.61
2023-01-23T12:53:08.132Z,0.61
2023-01-23T12:55:40.119Z,0.59
2023-01-23T12:58:13.625Z,0.60
2023-01-23T13:00:53.724Z,0.48
2023-01-23T13:03:45.956Z,0.34
2023-01-23T13:06:37.784Z,0.30
2023-01-23T13:09:18.333Z,0.26
2023-01-23T13:11:57.051Z,0.23
2023-01-23T13:15:00.669Z,0.27
2023-01-23T13:17:38.184Z,0.27
2023-01-23T13:20:38.465Z,0.31
2023-01-23T13:23:29.164Z,0.30
2023-01-23T13:26:28.829Z,0.21
2023-01-23T13:28:58.595Z,0.15
2023-01-23T13:31:33.889Z,0.20
2023-01-23T13:34:15.338Z,0.22
2023-01-23T13:36:44.244Z,0.17
2023-01-23T13:39:24.092Z,0.14
2023-01-23T13:42:13.719Z,0.13
2023-01-23T13:45:14.856Z,0.12
2023-01-23T14:22:40.588Z,0.14
2023-01-23T14:25:18.466Z,0.21
2023-01-23T14:27:53.685Z,0.22
2023-01-23T14:30:26.684Z,0.21
2023-01-23T14:32:54.785Z,0.21
2023-01-23T14:35:29.707Z,0.19
2023-01-23T14:38:00.911Z,0.20
2023-01-23T14:40:40.098Z,0.22
2023-01-23T14:43:21.481Z,0.19
2023-01-23T14:45:53.530Z,0.21
2023-01-23T14:48:22.283Z,0.24
2023-01-23T14:50:50.060Z,0.27
2023-01-23T14:53:18.376Z,0.17
2023-01-23T14:55:49.728Z,0.17
2023-01-23T14:58:22.317Z,0.13
2023-01-23T15:00:51.531Z,0.14
2023-01-23T15:03:41.563Z,0.09
2023-01-23T15:06:15.957Z,0.09
2023-01-23T15:08:44.866Z,0.09
2023-01-23T15:11:14.619Z,0.10
2023-01-23T15:13:47.062Z,0.15
2023-01-23T15:16:18.941Z,0.14
2023-01-23T15:18:54.309Z,0.10
2023-01-23T15:21:43.046Z,0.10
2023-01-23T15:24:28.283Z,0.10
2023-01-23T15:27:07.606Z,0.09
2023-01-23T15:29:36.414Z,0.07
2023-01-23T15:32:04.339Z,0.10
2023-01-23T15:34:34.376Z,0.10
2023-01-23T15:37:06.965Z,0.06
2023-01-23T15:39:39.127Z,0.04
2023-01-23T15:42:26.800Z,0.05
2023-01-23T15:44:54.967Z,0.06
2023-01-23T15:47:22.752Z,0.07
2023-01-23T15:49:50.554Z,0.05
2023-01-23T15:52:21.454Z,0.01
2023-01-23T15:54:51.136Z,-0.02
2023-01-23T15:57:20.430Z,-0.04
2023-01-23T15:59:48.150Z,0.00
2023-01-23T16:02:30.052Z,0.04
2023-01-23T16:04:58.683Z,0.00
2023-01-23T16:07:31.262Z,-0.03
2023-01-23T16:09:59.015Z,-0.04
2023-01-23T16:12:29.742Z,0.02
2023-01-23T16:14:57.845Z,0.03
2023-01-23T16:17:25.590Z,0.00
2023-01-23T16:19:54.346Z,0.02
2023-01-23T16:22:27.129Z,-0.02
2023-01-23T16:24:55.151Z,0.08
2023-01-23T16:27:27.365Z,-0.01
2023-01-23T16:29:57.070Z,-0.02
2023-01-23T16:32:25.475Z,0.02
2023-01-23T16:34:53.255Z,-0.04
2023-01-23T16:37:21.132Z,-0.01
2023-01-23T16:39:48.886Z,0.00
2023-01-23T16:42:20.430Z,0.02
2023-01-23T16:44:48.161Z,0.05
2023-01-23T16:47:19.150Z,0.02
2023-01-23T16:49:52.043Z,-0.07
2023-01-23T16:52:22.650Z,-0.05
2023-01-23T16:54:53.400Z,-0.04
2023-01-23T16:57:22.088Z,-0.06
2023-01-23T16:59:50.894Z,0.01
2023-01-23T17:02:23.056Z,-0.06
2023-01-23T17:04:51.073Z,-0.05
2023-01-23T17:07:19.710Z,0.03
2023-01-23T17:09:49.178Z,-0.04
2023-01-23T17:12:20.873Z,-0.03
2023-01-23T17:14:52.404Z,-0.05
2023-01-23T17:17:27.735Z,-0.06
2023-01-23T17:19:55.556Z,-0.03
2023-01-23T17:22:27.179Z,0.00
2023-01-23T17:24:54.918Z,-0.02
2023-01-23T17:27:22.737Z,-0.03
2023-01-23T17:29:50.891Z,-0.02
2023-01-23T17:32:29.387Z,-0.05
2023-01-23T17:34:58.035Z,-0.06
2023-01-23T17:37:26.001Z,-0.05
2023-01-23T17:39:55.218Z,-0.06
2023-01-23T17:42:23.121Z,-0.08
2023-01-23T17:44:50.862Z,-0.10
2023-01-23T17:47:18.999Z,-0.10
2023-01-23T17:49:54.389Z,-0.03
2023-01-23T17:52:22.705Z,-0.06
2023-01-23T17:54:50.729Z,0.02
2023-01-23T17:57:18.430Z,0.03
2023-01-23T17:59:46.255Z,-0.01
2023-01-23T18:02:26.514Z,-0.03
2023-01-23T18:04:55.732Z,0.02
2023-01-23T18:07:23.767Z,-0.04
2023-01-23T18:09:52.526Z,-0.04
2023-01-23T18:12:29.447Z,-0.03
2023-01-23T18:15:05.389Z,0.00
2023-01-23T18:17:40.994Z,0.06
2023-01-23T18:20:19.574Z,-0.02
2023-01-23T18:22:48.137Z,-0.01
2023-01-23T18:25:17.474Z,0.06
2023-01-23T18:27:50.122Z,0.02
2023-01-23T18:30:34.299Z,-0.02
2023-01-23T18:33:13.814Z,0.05
2023-01-23T18:36:03.650Z,0.07
2023-01-23T18:38:43.145Z,0.04
2023-01-23T18:41:21.969Z,-0.03
2023-01-23T18:43:53.042Z,-0.06
2023-01-23T18:46:23.966Z,-0.03
2023-01-23T18:48:52.147Z,-0.02
2023-01-23T18:51:32.814Z,-0.03
2023-01-23T18:54:09.833Z,-0.08
2023-01-23T18:56:48.707Z,-0.02
2023-01-23T18:59:23.874Z,-0.02
2023-01-23T19:01:54.921Z,-0.06
2023-01-23T19:04:34.404Z,-0.03
2023-01-23T19:07:04.707Z,-0.02
2023-01-23T19:09:35.139Z,-0.04
2023-01-23T19:12:24.912Z,-0.04
2023-01-23T19:15:11.818Z,-0.04
2023-01-23T19:17:47.370Z,-0.07
2023-01-23T19:20:26.946Z,-0.07
2023-01-23T19:23:03.061Z,-0.09
2023-01-23T19:25:31.164Z,-0.06
2023-01-23T19:28:01.429Z,-0.05
2023-01-23T19:30:29.899Z,-0.03
2023-01-23T19:32:58.190Z,-0.06
2023-01-23T19:35:25.973Z,-0.02
2023-01-23T19:37:53.710Z,-0.03
2023-01-23T19:40:22.991Z,-0.01
2023-01-23T19:43:05.651Z,-0.01
2023-01-23T19:45:41.083Z,-0.01
2023-01-23T19:48:10.736Z,0.05
2023-01-23T19:50:38.640Z,0.01
2023-01-23T19:53:06.718Z,-0.01
2023-01-23T19:55:38.289Z,0.00
2023-01-23T19:58:07.132Z,-0.02
2023-01-23T20:00:36.182Z,-0.01
2023-01-23T20:03:04.992Z,0.04
2023-01-23T20:05:33.185Z,0.03
2023-01-23T20:08:09.127Z,0.05
2023-01-23T20:10:39.454Z,0.00
2023-01-23T20:13:08.734Z,0.12
2023-01-23T20:15:36.542Z,0.06
2023-01-23T20:18:04.509Z,0.05
2023-01-23T20:20:32.331Z,0.08
2023-01-23T20:23:00.147Z,0.08
2023-01-23T20:25:27.871Z,0.10
2023-01-23T20:27:56.998Z,0.14
2023-01-23T20:30:25.023Z,0.11
2023-01-23T20:32:52.924Z,0.13
2023-01-23T20:35:20.688Z,0.09
2023-01-23T20:37:48.506Z,0.06
2023-01-23T20:40:16.738Z,0.07
2023-01-23T20:42:44.461Z,0.05
2023-01-23T20:45:13.584Z,0.04
2023-01-23T20:47:41.345Z,0.05
2023-01-23T20:50:10.256Z,0.01
2023-01-23T20:52:55.621Z,0.05
2023-01-23T20:55:23.616Z,0.08
2023-01-23T20:58:09.293Z,0.06
2023-01-23T21:00:38.425Z,0.13
2023-01-23T21:03:06.209Z,0.06
2023-01-23T21:05:33.936Z,0.09
2023-01-23T21:08:01.741Z,0.15
2023-01-23T21:10:29.513Z,0.07
2023-01-23T21:12:57.239Z,0.11
2023-01-23T21:15:25.007Z,0.10
2023-01-23T21:17:54.078Z,0.10
2023-01-23T21:20:21.827Z,0.07
2023-01-23T21:22:49.534Z,0.07
2023-01-23T21:25:17.353Z,0.12
2023-01-23T21:27:46.331Z,0.12
2023-01-23T21:30:14.647Z,0.08
2023-01-23T21:32:42.496Z,0.06
2023-01-23T21:35:11.749Z,0.07
2023-01-23T21:37:39.515Z,0.03
2023-01-23T21:40:08.900Z,0.03
2023-01-23T21:42:36.614Z,0.08
2023-01-23T21:45:04.634Z,0.11
2023-01-23T21:47:32.348Z,0.06
2023-01-23T21:50:00.037Z,0.05
2023-01-23T21:52:30.282Z,0.07
2023-01-23T21:54:58.028Z,0.07
2023-01-23T21:57:25.903Z,0.06
2023-01-23T22:00:07.479Z,0.11
2023-01-23T22:02:35.194Z,0.06
2023-01-23T22:05:02.955Z,0.08
2023-01-23T22:07:32.100Z,0.07
2023-01-23T22:09:59.852Z,0.09
2023-01-23T22:12:28.825Z,0.15
2023-01-23T22:14:56.691Z,0.11
2023-01-23T22:17:24.542Z,0.08
2023-01-23T22:19:52.263Z,0.05
2023-01-23T22:22:20.693Z,0.08
2023-01-23T22:24:49.704Z,0.13
2023-01-23T22:27:17.411Z,0.07
2023-01-23T22:29:45.138Z,0.07
2023-01-23T22:32:12.944Z,0.06
2023-01-23T22:34:42.750Z,0.03
2023-01-23T22:37:10.497Z,0.05
2023-01-23T22:39:38.230Z,0.06
2023-01-23T22:42:07.385Z,0.06
2023-01-23T22:44:35.400Z,0.10
2023-01-23T22:47:03.150Z,0.10
2023-01-23T22:49:32.007Z,0.09
2023-01-23T22:52:04.200Z,0.04
2023-01-23T22:54:31.921Z,0.03
2023-01-23T23:01:49.787Z,0.00
2023-01-23T23:04:17.447Z,0.05
2023-01-23T23:06:45.111Z,0.05
2023-01-23T23:09:12.926Z,0.03
2023-01-23T23:11:41.270Z,0.01
2023-01-23T23:14:11.015Z,0.06
2023-01-23T23:16:38.739Z,0.06
2023-01-23T23:19:12.139Z,0.05
2023-01-23T23:21:40.271Z,0.13
2023-01-23T23:24:09.589Z,0.07
2023-01-23T23:26:37.558Z,0.12
2023-01-23T23:29:06.081Z,0.15
2023-01-23T23:31:34.382Z,0.17
2023-01-23T23:34:02.483Z,0.10
2023-01-23T23:36:31.591Z,0.13
2023-01-23T23:38:59.269Z,0.10
2023-01-23T23:41:27.000Z,0.10
2023-01-23T23:43:54.655Z,0.09
2023-01-23T23:46:22.305Z,0.07
2023-01-23T23:48:49.945Z,0.10
2023-01-23T23:51:19.637Z,0.06
2023-01-23T23:53:48.686Z,0.07
2023-01-23T23:56:21.407Z,0.07
2023-01-23T23:58:49.124Z,0.05
